sensor_id;sensor_type;location;lat;lon;timestamp;temperature;humidity
11609;DHT22;5860;52.018;8.536;2022-07-29T00:00:00;17.80;99.90
11609;DHT22;5860;52.018;8.536;2022-07-29T00:02:27;17.80;99.90
11609;DHT22;5860;52.018;8.536;2022-07-29T00:04:54;17.80;99.90
11609;DHT22;5860;52.018;8.536;2022-07-29T00:07:21;17.80;99.90
11609;DHT22;5860;52.018;8.536;2022-07-29T00:09:48;17.80;99.90
11609;DHT22;5860;52.018;8.536;2022-07-29T00:12:21;17.80;99.90
11609;DHT22;5860;52.018;8.536;2022-07-29T00:14:55;17.70;99.90
11609;DHT22;5860;52.018;8.536;2022-07-29T00:17:25;17.70;99.90
11609;DHT22;5860;52.018;8.536;2022-07-29T00:19:52;17.80;99.90
11609;DHT22;5860;52.018;8.536;2022-07-29T00:22:20;17.70;99.90
11609;DHT22;5860;52.018;8.536;2022-07-29T00:24:47;17.70;99.90
11609;DHT22;5860;52.018;8.536;2022-07-29T00:27:15;17.70;99.90
11609;DHT22;5860;52.018;8.536;2022-07-29T00:29:42;17.70;99.90
11609;DHT22;5860;52.018;8.536;2022-07-29T00:32:09;17.70;99.90
11609;DHT22;5860;52.018;8.536;2022-07-29T00:34:36;17.70;99.90
11609;DHT22;5860;52.018;8.536;2022-07-29T00:37:21;17.70;99.90
11609;DHT22;5860;52.018;8.536;2022-07-29T00:39:48;17.70;99.90
11609;DHT22;5860;52.018;8.536;2022-07-29T00:42:15;17.70;99.90
11609;DHT22;5860;52.018;8.536;2022-07-29T00:44:43;17.60;99.90
11609;DHT22;5860;52.018;8.536;2022-07-29T00:47:10;17.70;99.90
11609;DHT22;5860;52.018;8.536;2022-07-29T00:49:39;17.60;99.90
11609;DHT22;5860;52.018;8.536;2022-07-29T00:52:07;17.60;99.90
11609;DHT22;5860;52.018;8.536;2022-07-29T00:54:36;17.60;99.90
11609;DHT22;5860;52.018;8.536;2022-07-29T00:57:11;17.60;99.90
11609;DHT22;5860;52.018;8.536;2022-07-29T00:59:38;17.60;99.90
11609;DHT22;5860;52.018;8.536;2022-07-29T01:02:05;17.60;99.90
11609;DHT22;5860;52.018;8.536;2022-07-29T01:04:32;17.60;99.90
11609;DHT22;5860;52.018;8.536;2022-07-29T01:07:01;17.60;99.90
11609;DHT22;5860;52.018;8.536;2022-07-29T01:09:29;17.50;99.90
11609;DHT22;5860;52.018;8.536;2022-07-29T01:12:16;17.50;99.90
11609;DHT22;5860;52.018;8.536;2022-07-29T01:14:45;17.50;99.90
11609;DHT22;5860;52.018;8.536;2022-07-29T01:17:43;17.40;99.90
11609;DHT22;5860;52.018;8.536;2022-07-29T01:31:48;17.40;99.90
11609;DHT22;5860;52.018;8.536;2022-07-29T01:35:00;17.40;99.90
11609;DHT22;5860;52.018;8.536;2022-07-29T01:42:58;17.30;99.90
11609;DHT22;5860;52.018;8.536;2022-07-29T01:45:56;17.30;99.90
11609;DHT22;5860;52.018;8.536;2022-07-29T01:48:41;17.30;99.90
11609;DHT22;5860;52.018;8.536;2022-07-29T01:53:53;17.20;99.90
11609;DHT22;5860;52.018;8.536;2022-07-29T01:56:23;17.20;99.90
11609;DHT22;5860;52.018;8.536;2022-07-29T01:58:52;17.20;99.90
11609;DHT22;5860;52.018;8.536;2022-07-29T02:01:21;17.20;99.90
11609;DHT22;5860;52.018;8.536;2022-07-29T02:03:51;17.10;99.90
11609;DHT22;5860;52.018;8.536;2022-07-29T02:06:21;17.10;99.90
11609;DHT22;5860;52.018;8.536;2022-07-29T02:08:50;17.10;99.90
11609;DHT22;5860;52.018;8.536;2022-07-29T02:11:17;17.10;99.90
11609;DHT22;5860;52.018;8.536;2022-07-29T02:13:45;17.10;99.90
11609;DHT22;5860;52.018;8.536;2022-07-29T02:16:15;17.00;99.90
11609;DHT22;5860;52.018;8.536;2022-07-29T02:18:45;17.00;99.90
11609;DHT22;5860;52.018;8.536;2022-07-29T02:21:13;17.00;99.90
11609;DHT22;5860;52.018;8.536;2022-07-29T02:23:43;16.90;99.90
11609;DHT22;5860;52.018;8.536;2022-07-29T02:26:19;16.90;99.90
11609;DHT22;5860;52.018;8.536;2022-07-29T02:28:48;16.90;99.90
11609;DHT22;5860;52.018;8.536;2022-07-29T02:31:18;16.90;99.90
11609;DHT22;5860;52.018;8.536;2022-07-29T02:33:47;16.80;99.90
11609;DHT22;5860;52.018;8.536;2022-07-29T02:36:16;16.80;99.90
11609;DHT22;5860;52.018;8.536;2022-07-29T02:38:43;16.80;99.90
11609;DHT22;5860;52.018;8.536;2022-07-29T02:41:28;16.80;99.90
11609;DHT22;5860;52.018;8.536;2022-07-29T02:44:01;16.80;99.90
11609;DHT22;5860;52.018;8.536;2022-07-29T02:46:34;16.80;99.90
11609;DHT22;5860;52.018;8.536;2022-07-29T02:52:01;16.80;99.90
11609;DHT22;5860;52.018;8.536;2022-07-29T02:54:55;16.70;99.90
11609;DHT22;5860;52.018;8.536;2022-07-29T02:57:33;16.70;99.90
11609;DHT22;5860;52.018;8.536;2022-07-29T03:00:19;16.70;99.90
11609;DHT22;5860;52.018;8.536;2022-07-29T03:02:52;16.70;99.90
11609;DHT22;5860;52.018;8.536;2022-07-29T03:05:21;16.60;99.90
11609;DHT22;5860;52.018;8.536;2022-07-29T03:07:54;16.60;99.90
11609;DHT22;5860;52.018;8.536;2022-07-29T03:10:23;16.60;99.90
11609;DHT22;5860;52.018;8.536;2022-07-29T03:12:50;16.60;99.90
11609;DHT22;5860;52.018;8.536;2022-07-29T03:15:19;16.60;99.90
11609;DHT22;5860;52.018;8.536;2022-07-29T03:17:49;16.60;99.90
11609;DHT22;5860;52.018;8.536;2022-07-29T03:20:16;16.60;99.90
11609;DHT22;5860;52.018;8.536;2022-07-29T03:22:44;16.60;99.90
11609;DHT22;5860;52.018;8.536;2022-07-29T03:25:18;16.70;99.90
11609;DHT22;5860;52.018;8.536;2022-07-29T03:27:46;16.70;99.90
11609;DHT22;5860;52.018;8.536;2022-07-29T03:30:14;16.70;99.90
11609;DHT22;5860;52.018;8.536;2022-07-29T03:32:47;16.60;99.90
11609;DHT22;5860;52.018;8.536;2022-07-29T03:35:17;16.60;99.90
11609;DHT22;5860;52.018;8.536;2022-07-29T03:37:44;16.60;99.90
11609;DHT22;5860;52.018;8.536;2022-07-29T03:40:18;16.60;99.90
11609;DHT22;5860;52.018;8.536;2022-07-29T03:42:45;16.50;99.90
11609;DHT22;5860;52.018;8.536;2022-07-29T03:45:16;16.50;99.90
11609;DHT22;5860;52.018;8.536;2022-07-29T03:47:49;16.50;99.90
11609;DHT22;5860;52.018;8.536;2022-07-29T03:50:22;16.60;99.90
11609;DHT22;5860;52.018;8.536;2022-07-29T03:52:49;16.60;99.90
11609;DHT22;5860;52.018;8.536;2022-07-29T03:55:17;16.60;99.90
11609;DHT22;5860;52.018;8.536;2022-07-29T03:57:45;16.60;99.90
11609;DHT22;5860;52.018;8.536;2022-07-29T04:00:13;16.60;99.90
11609;DHT22;5860;52.018;8.536;2022-07-29T04:02:43;16.70;99.90
11609;DHT22;5860;52.018;8.536;2022-07-29T04:05:15;16.60;99.90
11609;DHT22;5860;52.018;8.536;2022-07-29T04:07:46;16.60;99.90
11609;DHT22;5860;52.018;8.536;2022-07-29T04:10:14;16.60;99.90
11609;DHT22;5860;52.018;8.536;2022-07-29T04:12:42;16.60;99.90
11609;DHT22;5860;52.018;8.536;2022-07-29T04:15:10;16.60;99.90
11609;DHT22;5860;52.018;8.536;2022-07-29T04:17:37;16.60;99.90
11609;DHT22;5860;52.018;8.536;2022-07-29T04:20:04;16.50;99.90
11609;DHT22;5860;52.018;8.536;2022-07-29T04:22:31;16.50;99.90
11609;DHT22;5860;52.018;8.536;2022-07-29T04:24:58;16.50;99.90
11609;DHT22;5860;52.018;8.536;2022-07-29T04:27:30;16.50;99.90
11609;DHT22;5860;52.018;8.536;2022-07-29T04:29:56;16.50;99.90
11609;DHT22;5860;52.018;8.536;2022-07-29T04:32:24;16.50;99.90
11609;DHT22;5860;52.018;8.536;2022-07-29T04:34:51;16.50;99.90
11609;DHT22;5860;52.018;8.536;2022-07-29T04:37:19;16.60;99.90
11609;DHT22;5860;52.018;8.536;2022-07-29T04:39:46;16.60;99.90
11609;DHT22;5860;52.018;8.536;2022-07-29T04:42:13;16.60;99.90
11609;DHT22;5860;52.018;8.536;2022-07-29T04:44:39;16.60;99.90
11609;DHT22;5860;52.018;8.536;2022-07-29T04:47:09;16.70;99.90
11609;DHT22;5860;52.018;8.536;2022-07-29T04:49:39;16.70;99.90
11609;DHT22;5860;52.018;8.536;2022-07-29T04:52:06;16.70;99.90
11609;DHT22;5860;52.018;8.536;2022-07-29T04:54:33;16.70;99.90
11609;DHT22;5860;52.018;8.536;2022-07-29T04:57:00;16.80;99.90
11609;DHT22;5860;52.018;8.536;2022-07-29T04:59:27;16.80;99.90
11609;DHT22;5860;52.018;8.536;2022-07-29T05:01:54;16.80;99.90
11609;DHT22;5860;52.018;8.536;2022-07-29T05:04:20;17.00;99.90
11609;DHT22;5860;52.018;8.536;2022-07-29T05:06:48;17.10;99.90
11609;DHT22;5860;52.018;8.536;2022-07-29T05:09:15;17.40;99.90
11609;DHT22;5860;52.018;8.536;2022-07-29T05:11:41;17.80;99.90
11609;DHT22;5860;52.018;8.536;2022-07-29T05:14:08;17.90;99.90
11609;DHT22;5860;52.018;8.536;2022-07-29T05:16:35;17.90;99.90
11609;DHT22;5860;52.018;8.536;2022-07-29T05:19:02;17.80;99.90
11609;DHT22;5860;52.018;8.536;2022-07-29T05:21:29;17.80;99.90
11609;DHT22;5860;52.018;8.536;2022-07-29T05:23:56;17.80;99.90
11609;DHT22;5860;52.018;8.536;2022-07-29T05:26:23;17.70;99.90
11609;DHT22;5860;52.018;8.536;2022-07-29T05:28:50;17.70;99.90
11609;DHT22;5860;52.018;8.536;2022-07-29T05:31:17;17.50;99.90
11609;DHT22;5860;52.018;8.536;2022-07-29T05:33:44;17.60;99.90
11609;DHT22;5860;52.018;8.536;2022-07-29T05:36:11;17.40;99.90
11609;DHT22;5860;52.018;8.536;2022-07-29T05:38:38;17.50;99.90
11609;DHT22;5860;52.018;8.536;2022-07-29T05:41:05;17.80;99.90
11609;DHT22;5860;52.018;8.536;2022-07-29T05:43:32;18.00;99.90
11609;DHT22;5860;52.018;8.536;2022-07-29T05:45:59;18.00;99.90
11609;DHT22;5860;52.018;8.536;2022-07-29T05:48:26;18.10;99.90
11609;DHT22;5860;52.018;8.536;2022-07-29T05:50:53;17.90;99.90
11609;DHT22;5860;52.018;8.536;2022-07-29T05:53:21;17.80;99.90
11609;DHT22;5860;52.018;8.536;2022-07-29T05:55:48;17.90;99.90
11609;DHT22;5860;52.018;8.536;2022-07-29T05:58:15;17.90;99.90
11609;DHT22;5860;52.018;8.536;2022-07-29T06:00:43;17.80;99.90
11609;DHT22;5860;52.018;8.536;2022-07-29T06:03:10;17.90;99.90
11609;DHT22;5860;52.018;8.536;2022-07-29T06:05:37;17.80;99.90
11609;DHT22;5860;52.018;8.536;2022-07-29T06:08:04;17.80;99.90
11609;DHT22;5860;52.018;8.536;2022-07-29T06:10:35;17.70;99.90
11609;DHT22;5860;52.018;8.536;2022-07-29T06:13:02;17.80;99.90
11609;DHT22;5860;52.018;8.536;2022-07-29T06:15:29;17.80;99.90
11609;DHT22;5860;52.018;8.536;2022-07-29T06:17:56;17.90;99.90
11609;DHT22;5860;52.018;8.536;2022-07-29T06:20:30;18.20;99.90
11609;DHT22;5860;52.018;8.536;2022-07-29T06:22:58;18.30;99.90
11609;DHT22;5860;52.018;8.536;2022-07-29T06:25:26;18.40;99.90
11609;DHT22;5860;52.018;8.536;2022-07-29T06:27:56;18.30;99.90
11609;DHT22;5860;52.018;8.536;2022-07-29T06:30:23;18.50;99.90
11609;DHT22;5860;52.018;8.536;2022-07-29T06:32:50;18.70;99.90
11609;DHT22;5860;52.018;8.536;2022-07-29T06:35:17;18.80;99.90
11609;DHT22;5860;52.018;8.536;2022-07-29T06:38:04;19.20;99.90
11609;DHT22;5860;52.018;8.536;2022-07-29T06:40:51;19.50;99.90
11609;DHT22;5860;52.018;8.536;2022-07-29T06:43:28;19.20;99.90
11609;DHT22;5860;52.018;8.536;2022-07-29T06:46:03;18.90;99.90
11609;DHT22;5860;52.018;8.536;2022-07-29T06:48:31;18.90;99.90
11609;DHT22;5860;52.018;8.536;2022-07-29T06:50:58;18.80;99.90
11609;DHT22;5860;52.018;8.536;2022-07-29T06:53:26;18.60;99.90
11609;DHT22;5860;52.018;8.536;2022-07-29T06:55:53;18.60;99.90
11609;DHT22;5860;52.018;8.536;2022-07-29T06:58:20;18.80;99.90
11609;DHT22;5860;52.018;8.536;2022-07-29T07:00:47;19.20;99.90
11609;DHT22;5860;52.018;8.536;2022-07-29T07:03:16;19.20;99.90
11609;DHT22;5860;52.018;8.536;2022-07-29T07:05:43;19.20;99.90
11609;DHT22;5860;52.018;8.536;2022-07-29T07:08:12;19.10;99.90
11609;DHT22;5860;52.018;8.536;2022-07-29T07:10:39;19.20;99.90
11609;DHT22;5860;52.018;8.536;2022-07-29T07:13:06;19.40;99.90
11609;DHT22;5860;52.018;8.536;2022-07-29T07:15:33;19.40;99.90
11609;DHT22;5860;52.018;8.536;2022-07-29T07:18:06;19.50;99.90
11609;DHT22;5860;52.018;8.536;2022-07-29T07:20:34;19.80;99.90
11609;DHT22;5860;52.018;8.536;2022-07-29T07:23:01;20.10;99.90
11609;DHT22;5860;52.018;8.536;2022-07-29T07:25:28;20.40;99.90
11609;DHT22;5860;52.018;8.536;2022-07-29T07:27:55;21.20;99.90
11609;DHT22;5860;52.018;8.536;2022-07-29T07:30:22;21.30;99.90
11609;DHT22;5860;52.018;8.536;2022-07-29T07:32:49;21.10;99.90
11609;DHT22;5860;52.018;8.536;2022-07-29T07:35:16;20.70;99.90
11609;DHT22;5860;52.018;8.536;2022-07-29T07:37:43;20.70;99.90
11609;DHT22;5860;52.018;8.536;2022-07-29T07:40:11;21.10;99.90
11609;DHT22;5860;52.018;8.536;2022-07-29T07:42:44;20.80;99.90
11609;DHT22;5860;52.018;8.536;2022-07-29T07:45:11;20.70;99.90
11609;DHT22;5860;52.018;8.536;2022-07-29T07:47:42;20.80;99.90
11609;DHT22;5860;52.018;8.536;2022-07-29T07:50:11;20.40;99.90
11609;DHT22;5860;52.018;8.536;2022-07-29T07:52:52;20.30;99.90
11609;DHT22;5860;52.018;8.536;2022-07-29T07:55:20;20.40;99.90
11609;DHT22;5860;52.018;8.536;2022-07-29T07:57:47;20.30;99.90
11609;DHT22;5860;52.018;8.536;2022-07-29T08:00:15;20.50;99.90
11609;DHT22;5860;52.018;8.536;2022-07-29T08:02:42;21.40;99.90
11609;DHT22;5860;52.018;8.536;2022-07-29T08:05:10;21.80;99.90
11609;DHT22;5860;52.018;8.536;2022-07-29T08:07:38;21.90;99.90
11609;DHT22;5860;52.018;8.536;2022-07-29T08:10:06;21.40;99.90
11609;DHT22;5860;52.018;8.536;2022-07-29T08:12:34;20.90;99.90
11609;DHT22;5860;52.018;8.536;2022-07-29T08:15:01;20.80;99.90
11609;DHT22;5860;52.018;8.536;2022-07-29T08:17:27;21.20;99.90
11609;DHT22;5860;52.018;8.536;2022-07-29T08:19:54;21.30;99.90
11609;DHT22;5860;52.018;8.536;2022-07-29T08:22:21;21.20;99.90
11609;DHT22;5860;52.018;8.536;2022-07-29T08:24:49;21.20;99.90
11609;DHT22;5860;52.018;8.536;2022-07-29T08:27:22;22.10;99.90
11609;DHT22;5860;52.018;8.536;2022-07-29T08:30:09;23.10;96.10
11609;DHT22;5860;52.018;8.536;2022-07-29T08:32:37;24.30;93.00
11609;DHT22;5860;52.018;8.536;2022-07-29T08:35:22;23.50;91.40
11609;DHT22;5860;52.018;8.536;2022-07-29T08:37:50;23.70;91.80
11609;DHT22;5860;52.018;8.536;2022-07-29T08:40:18;22.90;90.50
11609;DHT22;5860;52.018;8.536;2022-07-29T08:42:57;22.30;94.00
11609;DHT22;5860;52.018;8.536;2022-07-29T08:45:25;22.10;94.10
11609;DHT22;5860;52.018;8.536;2022-07-29T08:47:52;22.10;95.20
11609;DHT22;5860;52.018;8.536;2022-07-29T08:50:19;22.00;95.90
11609;DHT22;5860;52.018;8.536;2022-07-29T08:52:47;22.30;93.50
11609;DHT22;5860;52.018;8.536;2022-07-29T08:55:15;21.90;94.60
11609;DHT22;5860;52.018;8.536;2022-07-29T08:57:47;22.70;92.80
11609;DHT22;5860;52.018;8.536;2022-07-29T09:00:21;23.20;90.60
11609;DHT22;5860;52.018;8.536;2022-07-29T09:02:54;23.40;87.40
11609;DHT22;5860;52.018;8.536;2022-07-29T09:05:24;23.70;82.90
11609;DHT22;5860;52.018;8.536;2022-07-29T09:07:52;23.80;80.30
11609;DHT22;5860;52.018;8.536;2022-07-29T09:10:19;23.70;83.60
11609;DHT22;5860;52.018;8.536;2022-07-29T09:12:47;24.50;79.90
11609;DHT22;5860;52.018;8.536;2022-07-29T09:15:15;25.30;73.80
11609;DHT22;5860;52.018;8.536;2022-07-29T09:17:45;25.10;77.70
11609;DHT22;5860;52.018;8.536;2022-07-29T09:20:19;24.80;70.20
11609;DHT22;5860;52.018;8.536;2022-07-29T09:22:46;24.60;71.30
11609;DHT22;5860;52.018;8.536;2022-07-29T09:25:51;25.10;68.50
11609;DHT22;5860;52.018;8.536;2022-07-29T09:28:18;24.10;70.20
11609;DHT22;5860;52.018;8.536;2022-07-29T09:30:53;24.50;69.20
11609;DHT22;5860;52.018;8.536;2022-07-29T09:33:21;25.20;66.00
11609;DHT22;5860;52.018;8.536;2022-07-29T09:36:08;24.90;65.80
11609;DHT22;5860;52.018;8.536;2022-07-29T09:38:36;25.40;63.10
11609;DHT22;5860;52.018;8.536;2022-07-29T09:41:04;25.50;62.00
11609;DHT22;5860;52.018;8.536;2022-07-29T09:43:33;26.10;60.40
11609;DHT22;5860;52.018;8.536;2022-07-29T09:46:10;24.50;64.00
11609;DHT22;5860;52.018;8.536;2022-07-29T09:48:38;23.50;70.20
11609;DHT22;5860;52.018;8.536;2022-07-29T09:51:17;22.90;76.10
11609;DHT22;5860;52.018;8.536;2022-07-29T09:53:47;23.10;77.60
11609;DHT22;5860;52.018;8.536;2022-07-29T09:56:13;23.40;76.20
11609;DHT22;5860;52.018;8.536;2022-07-29T09:58:40;23.50;78.70
11609;DHT22;5860;52.018;8.536;2022-07-29T10:01:07;23.70;74.40
11609;DHT22;5860;52.018;8.536;2022-07-29T10:03:53;23.90;74.30
11609;DHT22;5860;52.018;8.536;2022-07-29T10:06:20;23.80;74.10
11609;DHT22;5860;52.018;8.536;2022-07-29T10:08:47;23.60;75.10
11609;DHT22;5860;52.018;8.536;2022-07-29T10:11:16;23.50;76.00
11609;DHT22;5860;52.018;8.536;2022-07-29T10:13:45;23.40;77.60
11609;DHT22;5860;52.018;8.536;2022-07-29T10:16:13;23.40;75.70
11609;DHT22;5860;52.018;8.536;2022-07-29T10:18:42;23.70;75.60
11609;DHT22;5860;52.018;8.536;2022-07-29T10:21:09;24.40;73.20
11609;DHT22;5860;52.018;8.536;2022-07-29T10:23:57;24.20;73.40
11609;DHT22;5860;52.018;8.536;2022-07-29T10:26:27;24.10;74.40
11609;DHT22;5860;52.018;8.536;2022-07-29T10:28:55;24.40;74.00
11609;DHT22;5860;52.018;8.536;2022-07-29T10:31:31;24.10;73.60
11609;DHT22;5860;52.018;8.536;2022-07-29T10:39:45;25.60;66.20
11609;DHT22;5860;52.018;8.536;2022-07-29T10:42:23;25.50;66.50
11609;DHT22;5860;52.018;8.536;2022-07-29T10:45:01;24.80;67.80
11609;DHT22;5860;52.018;8.536;2022-07-29T10:47:30;25.10;67.00
11609;DHT22;5860;52.018;8.536;2022-07-29T10:49:58;24.80;63.80
11609;DHT22;5860;52.018;8.536;2022-07-29T10:52:55;23.90;67.70
11609;DHT22;5860;52.018;8.536;2022-07-29T10:55:37;24.50;65.40
11609;DHT22;5860;52.018;8.536;2022-07-29T11:00:40;25.50;60.70
11609;DHT22;5860;52.018;8.536;2022-07-29T11:06:15;25.10;60.60
11609;DHT22;5860;52.018;8.536;2022-07-29T11:08:43;25.10;63.40
11609;DHT22;5860;52.018;8.536;2022-07-29T11:13:55;25.10;64.20
11609;DHT22;5860;52.018;8.536;2022-07-29T11:16:23;25.10;63.80
11609;DHT22;5860;52.018;8.536;2022-07-29T11:21:41;25.30;63.70
11609;DHT22;5860;52.018;8.536;2022-07-29T11:24:26;25.70;64.10
11609;DHT22;5860;52.018;8.536;2022-07-29T11:27:08;25.40;61.20
11609;DHT22;5860;52.018;8.536;2022-07-29T11:30:00;25.30;60.00
11609;DHT22;5860;52.018;8.536;2022-07-29T11:32:37;25.30;59.80
11609;DHT22;5860;52.018;8.536;2022-07-29T11:35:22;24.80;58.80
11609;DHT22;5860;52.018;8.536;2022-07-29T11:38:23;25.10;57.50
11609;DHT22;5860;52.018;8.536;2022-07-29T11:41:19;24.80;60.00
11609;DHT22;5860;52.018;8.536;2022-07-29T11:43:57;25.40;60.10
11609;DHT22;5860;52.018;8.536;2022-07-29T11:46:43;25.70;62.00
11609;DHT22;5860;52.018;8.536;2022-07-29T11:49:12;25.20;63.60
11609;DHT22;5860;52.018;8.536;2022-07-29T11:51:41;24.50;64.50
11609;DHT22;5860;52.018;8.536;2022-07-29T11:54:34;24.90;65.60
11609;DHT22;5860;52.018;8.536;2022-07-29T11:57:21;25.00;64.80
11609;DHT22;5860;52.018;8.536;2022-07-29T12:00:05;25.10;63.80
11609;DHT22;5860;52.018;8.536;2022-07-29T12:02:44;25.50;61.70
11609;DHT22;5860;52.018;8.536;2022-07-29T12:05:14;25.60;59.80
11609;DHT22;5860;52.018;8.536;2022-07-29T12:08:21;25.60;58.80
11609;DHT22;5860;52.018;8.536;2022-07-29T12:10:50;25.70;61.10
11609;DHT22;5860;52.018;8.536;2022-07-29T12:13:20;25.80;59.80
11609;DHT22;5860;52.018;8.536;2022-07-29T12:15:56;25.40;57.50
11609;DHT22;5860;52.018;8.536;2022-07-29T12:18:28;25.10;59.00
11609;DHT22;5860;52.018;8.536;2022-07-29T12:20:59;25.30;59.80
11609;DHT22;5860;52.018;8.536;2022-07-29T12:23:30;25.40;59.30
11609;DHT22;5860;52.018;8.536;2022-07-29T12:26:10;25.40;58.00
11609;DHT22;5860;52.018;8.536;2022-07-29T12:28:48;25.20;58.50
11609;DHT22;5860;52.018;8.536;2022-07-29T12:31:16;25.00;61.00
11609;DHT22;5860;52.018;8.536;2022-07-29T12:34:03;25.10;61.40
11609;DHT22;5860;52.018;8.536;2022-07-29T12:36:30;25.40;61.20
11609;DHT22;5860;52.018;8.536;2022-07-29T12:38:57;25.70;59.70
11609;DHT22;5860;52.018;8.536;2022-07-29T12:41:24;25.00;60.40
11609;DHT22;5860;52.018;8.536;2022-07-29T12:43:54;25.00;61.30
11609;DHT22;5860;52.018;8.536;2022-07-29T12:46:21;25.00;61.80
11609;DHT22;5860;52.018;8.536;2022-07-29T12:48:53;25.10;61.80
11609;DHT22;5860;52.018;8.536;2022-07-29T12:51:35;25.10;63.50
11609;DHT22;5860;52.018;8.536;2022-07-29T12:54:05;25.40;60.30
11609;DHT22;5860;52.018;8.536;2022-07-29T12:56:33;25.20;62.50
11609;DHT22;5860;52.018;8.536;2022-07-29T12:59:19;25.10;60.40
11609;DHT22;5860;52.018;8.536;2022-07-29T13:01:49;25.10;60.70
11609;DHT22;5860;52.018;8.536;2022-07-29T13:04:30;25.20;61.90
11609;DHT22;5860;52.018;8.536;2022-07-29T13:06:59;25.10;62.10
11609;DHT22;5860;52.018;8.536;2022-07-29T13:09:40;25.00;63.30
11609;DHT22;5860;52.018;8.536;2022-07-29T13:12:09;25.40;61.20
11609;DHT22;5860;52.018;8.536;2022-07-29T13:14:44;25.70;62.30
11609;DHT22;5860;52.018;8.536;2022-07-29T13:17:16;25.40;61.50
11609;DHT22;5860;52.018;8.536;2022-07-29T13:22:16;25.20;63.00
11609;DHT22;5860;52.018;8.536;2022-07-29T13:24:53;25.00;64.60
11609;DHT22;5860;52.018;8.536;2022-07-29T13:27:23;25.00;66.10
11609;DHT22;5860;52.018;8.536;2022-07-29T13:29:50;25.10;66.60
11609;DHT22;5860;52.018;8.536;2022-07-29T13:32:20;25.30;66.20
11609;DHT22;5860;52.018;8.536;2022-07-29T13:34:56;25.10;65.30
11609;DHT22;5860;52.018;8.536;2022-07-29T13:37:23;24.90;67.00
11609;DHT22;5860;52.018;8.536;2022-07-29T13:39:50;24.80;67.70
11609;DHT22;5860;52.018;8.536;2022-07-29T13:42:19;24.80;68.60
11609;DHT22;5860;52.018;8.536;2022-07-29T13:44:46;24.80;69.00
11609;DHT22;5860;52.018;8.536;2022-07-29T13:47:15;24.70;68.90
11609;DHT22;5860;52.018;8.536;2022-07-29T13:49:42;24.70;70.60
11609;DHT22;5860;52.018;8.536;2022-07-29T13:52:09;24.60;71.10
11609;DHT22;5860;52.018;8.536;2022-07-29T13:54:36;24.70;70.80
11609;DHT22;5860;52.018;8.536;2022-07-29T13:57:09;24.70;70.50
11609;DHT22;5860;52.018;8.536;2022-07-29T13:59:38;24.80;70.50
11609;DHT22;5860;52.018;8.536;2022-07-29T14:02:06;24.70;71.50
11609;DHT22;5860;52.018;8.536;2022-07-29T14:04:33;24.80;71.50
11609;DHT22;5860;52.018;8.536;2022-07-29T14:07:00;24.80;72.10
11609;DHT22;5860;52.018;8.536;2022-07-29T14:09:29;24.80;70.80
11609;DHT22;5860;52.018;8.536;2022-07-29T14:12:07;24.70;71.10
11609;DHT22;5860;52.018;8.536;2022-07-29T14:14:34;24.80;71.80
11609;DHT22;5860;52.018;8.536;2022-07-29T14:17:03;24.70;71.40
11609;DHT22;5860;52.018;8.536;2022-07-29T14:19:34;24.60;70.60
11609;DHT22;5860;52.018;8.536;2022-07-29T14:22:06;24.70;71.40
11609;DHT22;5860;52.018;8.536;2022-07-29T14:24:35;24.80;70.90
11609;DHT22;5860;52.018;8.536;2022-07-29T14:27:06;25.20;70.80
11609;DHT22;5860;52.018;8.536;2022-07-29T14:29:34;25.30;69.40
11609;DHT22;5860;52.018;8.536;2022-07-29T14:32:08;25.00;70.70
11609;DHT22;5860;52.018;8.536;2022-07-29T14:34:36;25.10;71.20
11609;DHT22;5860;52.018;8.536;2022-07-29T14:37:04;25.20;70.10
11609;DHT22;5860;52.018;8.536;2022-07-29T14:39:41;25.40;70.50
11609;DHT22;5860;52.018;8.536;2022-07-29T14:42:10;25.30;70.30
11609;DHT22;5860;52.018;8.536;2022-07-29T14:44:39;25.00;72.10
11609;DHT22;5860;52.018;8.536;2022-07-29T14:47:07;24.70;75.00
11609;DHT22;5860;52.018;8.536;2022-07-29T14:49:34;24.60;76.40
11609;DHT22;5860;52.018;8.536;2022-07-29T14:52:02;24.50;77.80
11609;DHT22;5860;52.018;8.536;2022-07-29T14:54:29;24.40;78.30
11609;DHT22;5860;52.018;8.536;2022-07-29T14:56:55;24.40;78.60
11609;DHT22;5860;52.018;8.536;2022-07-29T14:59:24;24.30;78.00
11609;DHT22;5860;52.018;8.536;2022-07-29T15:01:51;24.30;77.70
11609;DHT22;5860;52.018;8.536;2022-07-29T15:04:18;24.30;78.50
11609;DHT22;5860;52.018;8.536;2022-07-29T15:06:45;24.30;79.50
11609;DHT22;5860;52.018;8.536;2022-07-29T15:09:12;24.40;80.00
11609;DHT22;5860;52.018;8.536;2022-07-29T15:11:39;24.30;83.50
11609;DHT22;5860;52.018;8.536;2022-07-29T15:14:06;24.10;82.30
11609;DHT22;5860;52.018;8.536;2022-07-29T15:16:38;24.10;83.10
11609;DHT22;5860;52.018;8.536;2022-07-29T15:19:10;24.10;83.70
11609;DHT22;5860;52.018;8.536;2022-07-29T15:21:37;24.00;84.10
11609;DHT22;5860;52.018;8.536;2022-07-29T15:24:13;23.80;85.30
11609;DHT22;5860;52.018;8.536;2022-07-29T15:26:40;23.70;87.10
11609;DHT22;5860;52.018;8.536;2022-07-29T15:29:08;23.80;87.20
11609;DHT22;5860;52.018;8.536;2022-07-29T15:31:36;23.80;88.70
11609;DHT22;5860;52.018;8.536;2022-07-29T15:34:03;23.80;88.60
11609;DHT22;5860;52.018;8.536;2022-07-29T15:36:32;23.80;87.80
11609;DHT22;5860;52.018;8.536;2022-07-29T15:39:18;23.80;88.60
11609;DHT22;5860;52.018;8.536;2022-07-29T15:41:45;23.80;88.10
11609;DHT22;5860;52.018;8.536;2022-07-29T15:44:12;23.80;88.40
11609;DHT22;5860;52.018;8.536;2022-07-29T15:46:39;23.70;88.70
11609;DHT22;5860;52.018;8.536;2022-07-29T15:49:25;23.80;89.10
11609;DHT22;5860;52.018;8.536;2022-07-29T15:52:18;23.70;90.60
11609;DHT22;5860;52.018;8.536;2022-07-29T15:54:53;23.70;91.00
11609;DHT22;5860;52.018;8.536;2022-07-29T15:57:20;23.70;91.00
11609;DHT22;5860;52.018;8.536;2022-07-29T15:59:48;23.80;91.10
11609;DHT22;5860;52.018;8.536;2022-07-29T16:02:15;23.70;91.50
11609;DHT22;5860;52.018;8.536;2022-07-29T16:04:41;23.70;92.20
11609;DHT22;5860;52.018;8.536;2022-07-29T16:07:08;23.60;93.00
11609;DHT22;5860;52.018;8.536;2022-07-29T16:09:35;23.70;93.10
11609;DHT22;5860;52.018;8.536;2022-07-29T16:12:02;23.60;93.20
11609;DHT22;5860;52.018;8.536;2022-07-29T16:14:40;23.50;94.10
11609;DHT22;5860;52.018;8.536;2022-07-29T16:17:07;23.50;93.70
11609;DHT22;5860;52.018;8.536;2022-07-29T16:19:39;23.40;93.50
11609;DHT22;5860;52.018;8.536;2022-07-29T16:22:06;23.40;94.40
11609;DHT22;5860;52.018;8.536;2022-07-29T16:24:33;23.40;94.50
11609;DHT22;5860;52.018;8.536;2022-07-29T16:27:00;23.40;94.50
11609;DHT22;5860;52.018;8.536;2022-07-29T16:29:27;23.30;94.70
11609;DHT22;5860;52.018;8.536;2022-07-29T16:31:54;23.30;95.20
11609;DHT22;5860;52.018;8.536;2022-07-29T16:34:21;23.20;95.80
11609;DHT22;5860;52.018;8.536;2022-07-29T16:36:48;23.10;96.10
11609;DHT22;5860;52.018;8.536;2022-07-29T16:39:15;23.10;96.70
11609;DHT22;5860;52.018;8.536;2022-07-29T16:41:42;23.10;97.10
11609;DHT22;5860;52.018;8.536;2022-07-29T16:44:09;23.10;99.90
11609;DHT22;5860;52.018;8.536;2022-07-29T16:46:36;22.70;99.90
11609;DHT22;5860;52.018;8.536;2022-07-29T16:49:04;22.50;99.90